^^
Meteo Knjazevac Station Historical Data
Daily Summary for May 16, 2022 Units:  Metric    English   Both
Daily Weekly Monthly Yearly Custom
  High: Low: Average:
Temperature: 29.8 °C 6.8 °C 19.1 °C
Dew Point: 14.1 °C 4.6 °C 9.9 °C
Humidity: 89% 34% 60%
Wind Speed: 12.9km/h 0km/h 3.5km/h
Wind Gust: 19.3km/h - -
Wind- - WSW
Pressure: 1021.6 hPa 1017.8 hPa -
Precipitation: 0 mm    
Historical Graphs
 
 
Tabular Data for May 16, 2022
Time Temperature Dew Point Pressure Wind Wind Speed Wind Gust Humidity Rainfall Rate (Hourly) solar Conditions
00:00 12.6 °C 7.7 °C 1020.9 hPa WNW 1.6 km/h 3.2 km/h 72% 0 mm 0 W/m2
00:10 12.2 °C 7.5 °C 1020.9 hPa Calm   3.2 km/h 73% 0 mm 0 W/m2
00:20 11.8 °C 7.1 °C 1020.9 hPa West 1.6 km/h 3.2 km/h 73% 0 mm 0 W/m2
00:30 11.2 °C 6.8 °C 1020.9 hPa Calm   3.2 km/h 74% 0 mm 0 W/m2
00:40 10.9 °C 6.7 °C 1020.9 hPa Calm   3.2 km/h 75% 0 mm 0 W/m2
00:50 10.7 °C 6.4 °C 1020.9 hPa West 1.6 km/h 4.8 km/h 75% 0 mm 0 W/m2
01:00 10.3 °C 6.4 °C 1020.9 hPa WSW 3.2 km/h 4.8 km/h 77% 0 mm 0 W/m2
01:10 10.1 °C 6.2 °C 1020.9 hPa WNW 3.2 km/h 8 km/h 77% 0 mm 0 W/m2
01:20 10.1 °C 6.4 °C 1020.9 hPa WNW 1.6 km/h 8 km/h 78% 0 mm 0 W/m2
01:30 9.9 °C 6.3 °C 1020.9 hPa NNW 1.6 km/h 3.2 km/h 78% 0 mm 0 W/m2
01:40 9.7 °C 6.1 °C 1020.9 hPa NW 1.6 km/h 3.2 km/h 78% 0 mm 0 W/m2
01:50 9.4 °C 5.9 °C 1020.9 hPa West 1.6 km/h 4.8 km/h 79% 0 mm 0 W/m2
02:00 9.3 °C 5.8 °C 1020.9 hPa West 3.2 km/h 6.4 km/h 79% 0 mm 0 W/m2
02:10 9.3 °C 6 °C 1020.9 hPa West 3.2 km/h 4.8 km/h 80% 0 mm 0 W/m2
02:20 9.2 °C 5.9 °C 1020.9 hPa WNW 1.6 km/h 4.8 km/h 80% 0 mm 0 W/m2
02:30 9 °C 5.7 °C 1020.9 hPa West 1.6 km/h 4.8 km/h 80% 0 mm 0 W/m2
02:40 8.6 °C 5.4 °C 1020.9 hPa WSW 1.6 km/h 4.8 km/h 80% 0 mm 0 W/m2
02:50 8.5 °C 5.4 °C 1020.9 hPa West 4.8 km/h 9.7 km/h 81% 0 mm 0 W/m2
03:00 8.5 °C 5.4 °C 1020.9 hPa West 1.6 km/h 9.7 km/h 81% 0 mm 0 W/m2
03:10 8.4 °C 5.3 °C 1020.9 hPa West 3.2 km/h 4.8 km/h 81% 0 mm 0 W/m2
03:20 8.3 °C 5.6 °C 1020.9 hPa West 3.2 km/h 4.8 km/h 83% 0 mm 0 W/m2
03:30 8.3 °C 5.6 °C 1020.9 hPa Calm   4.8 km/h 83% 0 mm 0 W/m2
03:40 8.1 °C 5.4 °C 1020.9 hPa West 1.6 km/h 4.8 km/h 83% 0 mm 0 W/m2
03:50 7.9 °C 5.2 °C 1020.9 hPa West 3.2 km/h 6.4 km/h 83% 0 mm 0 W/m2
04:00 7.8 °C 5.3 °C 1020.9 hPa West 3.2 km/h 4.8 km/h 84% 0 mm 0 W/m2
04:10 7.6 °C 5.1 °C 1020.9 hPa West 1.6 km/h 4.8 km/h 84% 0 mm 0 W/m2
04:20 7.4 °C 4.9 °C 1020.9 hPa West 1.6 km/h 4.8 km/h 84% 0 mm 0 W/m2
04:30 7.3 °C 4.8 °C 1020.9 hPa West 1.6 km/h 3.2 km/h 84% 0 mm 0 W/m2
04:40 7.2 °C 4.8 °C 1020.9 hPa WNW 1.6 km/h 4.8 km/h 85% 0 mm 0 W/m2
04:50 7.2 °C 4.8 °C 1020.9 hPa West 3.2 km/h 8 km/h 85% 0 mm 0 W/m2
05:00 7.1 °C 4.9 °C 1021.2 hPa West 3.2 km/h 8 km/h 86% 0 mm 0 W/m2
05:10 7 °C 4.8 °C 1021.2 hPa Calm   6.4 km/h 86% 0 mm 5 W/m2
05:20 6.9 °C 4.7 °C 1021.2 hPa WNW 1.6 km/h 3.2 km/h 86% 0 mm 11 W/m2
05:30 6.9 °C 4.7 °C 1021.2 hPa West 3.2 km/h 4.8 km/h 86% 0 mm 19 W/m2
05:40 6.8 °C 4.6 °C 1021.2 hPa West 3.2 km/h 4.8 km/h 86% 0 mm 27 W/m2
05:50 7 °C 5.3 °C 1021.6 hPa WNW 3.2 km/h 6.4 km/h 89% 0 mm 35 W/m2
06:00 7.2 °C 5.3 °C 1021.6 hPa WNW 1.6 km/h 4.8 km/h 88% 0 mm 66 W/m2
06:10 7.3 °C 5.4 °C 1021.6 hPa West 3.2 km/h 8 km/h 88% 0 mm 87 W/m2
06:20 7.4 °C 5.6 °C 1021.6 hPa West 3.2 km/h 4.8 km/h 88% 0 mm 108 W/m2
06:30 7.6 °C 5.9 °C 1021.6 hPa West 3.2 km/h 4.8 km/h 89% 0 mm 135 W/m2
06:40 7.8 °C 6.1 °C 1021.6 hPa West 1.6 km/h 4.8 km/h 89% 0 mm 161 W/m2
06:50 8.2 °C 6.5 °C 1021.6 hPa West 3.2 km/h 9.7 km/h 89% 0 mm 191 W/m2
07:00 8.9 °C 7.2 °C 1021.6 hPa West 3.2 km/h 8 km/h 89% 0 mm 218 W/m2
07:10 9.4 °C 7.5 °C 1021.6 hPa West 1.6 km/h 6.4 km/h 88% 0 mm 246 W/m2
07:20 10 °C 7.8 °C 1021.6 hPa West 1.6 km/h 6.4 km/h 86% 0 mm 279 W/m2
07:30 10.8 °C 8.4 °C 1021.6 hPa West 3.2 km/h 6.4 km/h 85% 0 mm 311 W/m2
07:40 11.4 °C 8.9 °C 1021.6 hPa Calm   4.8 km/h 85% 0 mm 342 W/m2
07:50 12.2 °C 9.4 °C 1021.6 hPa NW 1.6 km/h 6.4 km/h 83% 0 mm 374 W/m2
08:00 12.9 °C 9.5 °C 1021.6 hPa WNW 3.2 km/h 6.4 km/h 80% 0 mm 407 W/m2
08:10 13.7 °C 10.3 °C 1021.6 hPa WSW 1.6 km/h 4.8 km/h 80% 0 mm 439 W/m2
08:20 14.7 °C 10.9 °C 1021.6 hPa WSW 3.2 km/h 4.8 km/h 78% 0 mm 474 W/m2
08:30 16.3 °C 11.7 °C 1021.6 hPa WSW 1.6 km/h 4.8 km/h 74% 0 mm 507 W/m2
08:40 17.6 °C 12.1 °C 1021.6 hPa Calm   4.8 km/h 70% 0 mm 548 W/m2
08:50 18.8 °C 12.7 °C 1021.6 hPa South 1.6 km/h 6.4 km/h 68% 0 mm 585 W/m2
09:00 19.7 °C 13.4 °C 1021.6 hPa SW 1.6 km/h 6.4 km/h 67% 0 mm 619 W/m2
09:10 20.7 °C 13.4 °C 1021.6 hPa South 3.2 km/h 6.4 km/h 63% 0 mm 648 W/m2
09:20 21.5 °C 13.2 °C 1021.6 hPa NE 1.6 km/h 9.7 km/h 59% 0 mm 677 W/m2
09:30 22.2 °C 13.8 °C 1021.6 hPa SSE 1.6 km/h 8 km/h 59% 0 mm 709 W/m2
09:40 22.9 °C 13.4 °C 1021.2 hPa SSE 4.8 km/h 9.7 km/h 55% 0 mm 733 W/m2
09:50 23.4 °C 13 °C 1021.2 hPa South 1.6 km/h 8 km/h 52% 0 mm 762 W/m2
10:00 23.9 °C 12.8 °C 1021.2 hPa Calm   8 km/h 50% 0 mm 788 W/m2
10:10 24.3 °C 13.8 °C 1021.2 hPa NNW 1.6 km/h 4.8 km/h 52% 0 mm 808 W/m2
10:20 24.9 °C 13.1 °C 1021.2 hPa North 1.6 km/h 11.3 km/h 48% 0 mm 829 W/m2
10:30 25.5 °C 13.3 °C 1020.9 hPa NNE 4.8 km/h 11.3 km/h 47% 0 mm 847 W/m2
10:40 25.7 °C 12.6 °C 1020.9 hPa NNE 1.6 km/h 12.9 km/h 44% 0 mm 125 W/m2
10:50 26.2 °C 13 °C 1020.9 hPa NE 9.7 km/h 11.3 km/h 44% 0 mm 878 W/m2
11:00 26.4 °C 12.4 °C 1020.9 hPa South 3.2 km/h 11.3 km/h 42% 0 mm 892 W/m2
11:10 26.7 °C 13.1 °C 1020.9 hPa NNE 3.2 km/h 16.1 km/h 43% 0 mm 642 W/m2
11:20 26.9 °C 12.2 °C 1020.5 hPa South 8 km/h 14.5 km/h 40% 0 mm 915 W/m2
11:30 27.1 °C 13.1 °C 1020.9 hPa NNE 1.6 km/h 16.1 km/h 42% 0 mm 924 W/m2
11:40 27 °C 13 °C 1020.5 hPa ENE 1.6 km/h 16.1 km/h 42% 0 mm 932 W/m2
11:50 27.1 °C 12.3 °C 1020.5 hPa South 4.8 km/h 11.3 km/h 40% 0 mm 938 W/m2
12:00 27.4 °C 12.6 °C 1020.5 hPa SSE 4.8 km/h 14.5 km/h 40% 0 mm 943 W/m2
12:10 27.7 °C 13.6 °C 1020.2 hPa East 9.7 km/h 19.3 km/h 42% 0 mm 946 W/m2
12:20 27.9 °C 13.1 °C 1020.2 hPa North 3.2 km/h 14.5 km/h 40% 0 mm 948 W/m2
12:30 28 °C 12.8 °C 1020.2 hPa NNE 1.6 km/h 12.9 km/h 39% 0 mm 380 W/m2
12:40 27.4 °C 12.6 °C 1020.2 hPa SSW 4.8 km/h 11.3 km/h 40% 0 mm 946 W/m2
12:50 27.7 °C 13.6 °C 1019.9 hPa South 4.8 km/h 11.3 km/h 42% 0 mm 943 W/m2
13:00 28.2 °C 14.1 °C 1019.9 hPa SW 3.2 km/h 19.3 km/h 42% 0 mm 939 W/m2
13:10 28.5 °C 13.2 °C 1019.9 hPa SSW 8 km/h 19.3 km/h 39% 0 mm 932 W/m2
13:20 28.4 °C 13.1 °C 1019.9 hPa SSW 4.8 km/h 16.1 km/h 39% 0 mm 925 W/m2
13:30 28.7 °C 13.8 °C 1019.5 hPa SW 4.8 km/h 16.1 km/h 40% 0 mm 915 W/m2
13:40 29.1 °C 14.1 °C 1019.5 hPa West 3.2 km/h 12.9 km/h 40% 0 mm 905 W/m2
13:50 29.3 °C 13.9 °C 1019.5 hPa WNW 4.8 km/h 12.9 km/h 39% 0 mm 892 W/m2
14:00 29.6 °C 13.8 °C 1019.5 hPa WSW 3.2 km/h 11.3 km/h 38% 0 mm 225 W/m2
14:10 29.1 °C 13.3 °C 1019.2 hPa SW 1.6 km/h 11.3 km/h 38% 0 mm 230 W/m2
14:20 29.1 °C 12.9 °C 1019.2 hPa NNW 12.9 km/h 19.3 km/h 37% 0 mm 847 W/m2
14:30 28.9 °C 13.6 °C 1019.2 hPa NNW 4.8 km/h 19.3 km/h 39% 0 mm 307 W/m2
14:40 28.5 °C 13.2 °C 1018.8 hPa North 4.8 km/h 11.3 km/h 39% 0 mm 190 W/m2
14:50 28 °C 12.8 °C 1018.8 hPa NW 3.2 km/h 9.7 km/h 39% 0 mm 194 W/m2
15:00 28.3 °C 13 °C 1018.8 hPa WNW 3.2 km/h 8 km/h 39% 0 mm 769 W/m2
15:10 28.9 °C 13.2 °C 1018.5 hPa West 1.6 km/h 8 km/h 38% 0 mm 746 W/m2
15:20 29.3 °C 13.5 °C 1018.5 hPa WSW 4.8 km/h 12.9 km/h 38% 0 mm 723 W/m2
15:30 29.5 °C 13.7 °C 1018.5 hPa West 4.8 km/h 16.1 km/h 38% 0 mm 698 W/m2
15:40 29.7 °C 13.4 °C 1018.5 hPa WNW 8 km/h 12.9 km/h 37% 0 mm 672 W/m2
15:50 29.8 °C 12.7 °C 1018.5 hPa West 8 km/h 14.5 km/h 35% 0 mm 646 W/m2
16:00 29.7 °C 12.6 °C 1018.5 hPa WNW 8 km/h 12.9 km/h 35% 0 mm 618 W/m2
16:10 29.8 °C 12.7 °C 1018.5 hPa NW 8 km/h 14.5 km/h 35% 0 mm 590 W/m2
16:20 29.8 °C 12.7 °C 1018.5 hPa WNW 4.8 km/h 12.9 km/h 35% 0 mm 561 W/m2
16:30 29.8 °C 12.7 °C 1018.5 hPa WNW 8 km/h 12.9 km/h 35% 0 mm 532 W/m2
16:40 29.6 °C 12.5 °C 1018.2 hPa West 3.2 km/h 8 km/h 35% 0 mm 502 W/m2
16:50 29.6 °C 12.5 °C 1018.2 hPa West 4.8 km/h 19.3 km/h 35% 0 mm 467 W/m2
17:00 29.7 °C 12.2 °C 1018.2 hPa WNW 8 km/h 11.3 km/h 34% 0 mm 423 W/m2
17:10 29.6 °C 12.5 °C 1018.2 hPa West 8 km/h 12.9 km/h 35% 0 mm 374 W/m2
17:20 29.5 °C 12.4 °C 1017.8 hPa West 8 km/h 16.1 km/h 35% 0 mm 346 W/m2
17:30 29.4 °C 12.3 °C 1017.8 hPa West 4.8 km/h 12.9 km/h 35% 0 mm 318 W/m2
17:40 29.4 °C 12.3 °C 1017.8 hPa WSW 8 km/h 11.3 km/h 35% 0 mm 286 W/m2
17:50 29.2 °C 12.2 °C 1017.8 hPa West 8 km/h 16.1 km/h 35% 0 mm 254 W/m2
18:00 29.1 °C 12.1 °C 1017.8 hPa West 9.7 km/h 16.1 km/h 35% 0 mm 225 W/m2
18:10 28.9 °C 11.4 °C 1017.8 hPa West 8 km/h 14.5 km/h 34% 0 mm 198 W/m2
18:20 28.7 °C 11.7 °C 1017.8 hPa WSW 3.2 km/h 11.3 km/h 35% 0 mm 169 W/m2
18:30 28.7 °C 11.7 °C 1017.8 hPa West 3.2 km/h 12.9 km/h 35% 0 mm 138 W/m2
18:40 28.5 °C 11.6 °C 1017.8 hPa West 4.8 km/h 11.3 km/h 35% 0 mm 111 W/m2
18:50 28.2 °C 12.1 °C 1017.8 hPa WSW 4.8 km/h 11.3 km/h 37% 0 mm 88 W/m2
Knjazevac, Serbia
Compliments of Weather Underground - 2 mb